sensor_id;sensor_type;location;lat;lon;timestamp;P1;durP1;ratioP1;P2;durP2;ratioP2
63276;SDS011;49403;51.046;13.780;2023-05-07T00:00:23;13.70;;;9.65;;
63276;SDS011;49403;51.046;13.780;2023-05-07T00:00:54;16.13;;;9.90;;
63276;SDS011;49403;51.046;13.780;2023-05-07T00:01:26;14.85;;;9.90;;
63276;SDS011;49403;51.046;13.780;2023-05-07T00:01:57;14.20;;;10.00;;
63276;SDS011;49403;51.046;13.780;2023-05-07T00:02:28;15.35;;;9.70;;
63276;SDS011;49403;51.046;13.780;2023-05-07T00:02:59;15.48;;;10.15;;
63276;SDS011;49403;51.046;13.780;2023-05-07T00:03:31;16.70;;;10.02;;
63276;SDS011;49403;51.046;13.780;2023-05-07T00:04:03;14.43;;;9.77;;
63276;SDS011;49403;51.046;13.780;2023-05-07T00:04:34;14.48;;;9.77;;
63276;SDS011;49403;51.046;13.780;2023-05-07T00:05:07;16.90;;;9.73;;
63276;SDS011;49403;51.046;13.780;2023-05-07T00:05:39;17.17;;;10.00;;
63276;SDS011;49403;51.046;13.780;2023-05-07T00:06:11;13.73;;;9.35;;
63276;SDS011;49403;51.046;13.780;2023-05-07T00:06:42;14.65;;;9.80;;
63276;SDS011;49403;51.046;13.780;2023-05-07T00:07:14;15.60;;;9.82;;
63276;SDS011;49403;51.046;13.780;2023-05-07T00:07:46;14.20;;;9.60;;
63276;SDS011;49403;51.046;13.780;2023-05-07T00:08:17;13.55;;;9.63;;
63276;SDS011;49403;51.046;13.780;2023-05-07T00:08:49;14.27;;;9.13;;
63276;SDS011;49403;51.046;13.780;2023-05-07T00:09:20;14.68;;;9.70;;
63276;SDS011;49403;51.046;13.780;2023-05-07T00:09:51;14.63;;;9.88;;
63276;SDS011;49403;51.046;13.780;2023-05-07T00:10:22;14.10;;;9.90;;
63276;SDS011;49403;51.046;13.780;2023-05-07T00:10:53;16.98;;;10.18;;
63276;SDS011;49403;51.046;13.780;2023-05-07T00:11:25;15.40;;;9.93;;
63276;SDS011;49403;51.046;13.780;2023-05-07T00:11:56;14.73;;;9.27;;
63276;SDS011;49403;51.046;13.780;2023-05-07T00:12:27;14.35;;;9.57;;
63276;SDS011;49403;51.046;13.780;2023-05-07T00:13:01;15.38;;;9.60;;
63276;SDS011;49403;51.046;13.780;2023-05-07T00:13:32;15.68;;;9.73;;
63276;SDS011;49403;51.046;13.780;2023-05-07T00:14:05;15.05;;;10.30;;
63276;SDS011;49403;51.046;13.780;2023-05-07T00:14:36;15.63;;;9.55;;
63276;SDS011;49403;51.046;13.780;2023-05-07T00:15:07;13.70;;;9.50;;
63276;SDS011;49403;51.046;13.780;2023-05-07T00:15:39;16.02;;;10.05;;
63276;SDS011;49403;51.046;13.780;2023-05-07T00:16:10;17.05;;;9.90;;
63276;SDS011;49403;51.046;13.780;2023-05-07T00:16:41;16.27;;;10.10;;
63276;SDS011;49403;51.046;13.780;2023-05-07T00:17:12;14.75;;;9.73;;
63276;SDS011;49403;51.046;13.780;2023-05-07T00:17:43;15.07;;;9.30;;
63276;SDS011;49403;51.046;13.780;2023-05-07T00:18:15;14.55;;;9.65;;
63276;SDS011;49403;51.046;13.780;2023-05-07T00:18:46;15.45;;;9.52;;
63276;SDS011;49403;51.046;13.780;2023-05-07T00:19:17;17.75;;;10.57;;
63276;SDS011;49403;51.046;13.780;2023-05-07T00:19:48;18.70;;;10.50;;
63276;SDS011;49403;51.046;13.780;2023-05-07T00:20:20;15.73;;;10.75;;
63276;SDS011;49403;51.046;13.780;2023-05-07T00:20:51;16.92;;;10.85;;
63276;SDS011;49403;51.046;13.780;2023-05-07T00:21:22;15.95;;;10.70;;
63276;SDS011;49403;51.046;13.780;2023-05-07T00:21:56;16.50;;;10.10;;
63276;SDS011;49403;51.046;13.780;2023-05-07T00:22:28;15.65;;;10.43;;
63276;SDS011;49403;51.046;13.780;2023-05-07T00:23:00;17.85;;;10.35;;
63276;SDS011;49403;51.046;13.780;2023-05-07T00:23:31;16.27;;;10.27;;
63276;SDS011;49403;51.046;13.780;2023-05-07T00:24:02;16.23;;;10.45;;
63276;SDS011;49403;51.046;13.780;2023-05-07T00:24:34;17.35;;;9.93;;
63276;SDS011;49403;51.046;13.780;2023-05-07T00:25:05;16.35;;;10.40;;
63276;SDS011;49403;51.046;13.780;2023-05-07T00:25:36;14.57;;;9.93;;
63276;SDS011;49403;51.046;13.780;2023-05-07T00:26:07;15.55;;;9.80;;
63276;SDS011;49403;51.046;13.780;2023-05-07T00:26:39;14.93;;;9.88;;
63276;SDS011;49403;51.046;13.780;2023-05-07T00:27:10;17.70;;;10.25;;
63276;SDS011;49403;51.046;13.780;2023-05-07T00:27:41;16.95;;;9.68;;
63276;SDS011;49403;51.046;13.780;2023-05-07T00:28:12;17.92;;;9.80;;
63276;SDS011;49403;51.046;13.780;2023-05-07T00:28:43;15.45;;;9.95;;
63276;SDS011;49403;51.046;13.780;2023-05-07T00:29:14;14.95;;;9.57;;
63276;SDS011;49403;51.046;13.780;2023-05-07T00:29:45;14.52;;;9.95;;
63276;SDS011;49403;51.046;13.780;2023-05-07T00:30:17;15.05;;;9.30;;
63276;SDS011;49403;51.046;13.780;2023-05-07T00:30:48;15.05;;;10.25;;
63276;SDS011;49403;51.046;13.780;2023-05-07T00:31:19;14.70;;;9.70;;
63276;SDS011;49403;51.046;13.780;2023-05-07T00:31:50;16.55;;;10.00;;
63276;SDS011;49403;51.046;13.780;2023-05-07T00:32:24;14.73;;;9.90;;
63276;SDS011;49403;51.046;13.780;2023-05-07T00:32:55;18.63;;;10.20;;
63276;SDS011;49403;51.046;13.780;2023-05-07T00:33:26;15.07;;;10.05;;
63276;SDS011;49403;51.046;13.780;2023-05-07T00:33:57;14.25;;;9.70;;
63276;SDS011;49403;51.046;13.780;2023-05-07T00:34:28;17.17;;;10.68;;
63276;SDS011;49403;51.046;13.780;2023-05-07T00:34:59;16.00;;;9.93;;
63276;SDS011;49403;51.046;13.780;2023-05-07T00:35:31;15.40;;;10.25;;
63276;SDS011;49403;51.046;13.780;2023-05-07T00:36:02;15.25;;;10.60;;
63276;SDS011;49403;51.046;13.780;2023-05-07T00:36:33;17.17;;;10.48;;
63276;SDS011;49403;51.046;13.780;2023-05-07T00:37:05;16.75;;;10.52;;
63276;SDS011;49403;51.046;13.780;2023-05-07T00:37:39;16.95;;;10.60;;
63276;SDS011;49403;51.046;13.780;2023-05-07T00:38:10;18.52;;;10.85;;
63276;SDS011;49403;51.046;13.780;2023-05-07T00:38:45;17.65;;;10.52;;
63276;SDS011;49403;51.046;13.780;2023-05-07T00:39:16;15.77;;;10.30;;
63276;SDS011;49403;51.046;13.780;2023-05-07T00:39:48;16.77;;;10.95;;
63276;SDS011;49403;51.046;13.780;2023-05-07T00:40:19;15.63;;;10.50;;
63276;SDS011;49403;51.046;13.780;2023-05-07T00:40:51;14.93;;;11.05;;
63276;SDS011;49403;51.046;13.780;2023-05-07T00:41:22;19.83;;;11.52;;
63276;SDS011;49403;51.046;13.780;2023-05-07T00:41:53;16.73;;;11.65;;
63276;SDS011;49403;51.046;13.780;2023-05-07T00:42:24;17.65;;;11.35;;
63276;SDS011;49403;51.046;13.780;2023-05-07T00:42:56;17.55;;;11.25;;
63276;SDS011;49403;51.046;13.780;2023-05-07T00:43:28;16.48;;;11.60;;
63276;SDS011;49403;51.046;13.780;2023-05-07T00:43:59;19.40;;;11.35;;
63276;SDS011;49403;51.046;13.780;2023-05-07T00:44:32;17.30;;;11.60;;
63276;SDS011;49403;51.046;13.780;2023-05-07T00:45:03;17.42;;;11.13;;
63276;SDS011;49403;51.046;13.780;2023-05-07T00:45:35;16.50;;;11.48;;
63276;SDS011;49403;51.046;13.780;2023-05-07T00:46:06;16.63;;;10.90;;
63276;SDS011;49403;51.046;13.780;2023-05-07T00:46:37;16.52;;;11.38;;
63276;SDS011;49403;51.046;13.780;2023-05-07T00:47:09;16.70;;;11.45;;
63276;SDS011;49403;51.046;13.780;2023-05-07T00:47:40;16.73;;;11.43;;
63276;SDS011;49403;51.046;13.780;2023-05-07T00:48:11;18.35;;;11.73;;
63276;SDS011;49403;51.046;13.780;2023-05-07T00:48:43;20.08;;;11.93;;
63276;SDS011;49403;51.046;13.780;2023-05-07T00:49:15;17.58;;;11.02;;
63276;SDS011;49403;51.046;13.780;2023-05-07T00:49:46;18.58;;;11.70;;
63276;SDS011;49403;51.046;13.780;2023-05-07T00:50:18;17.58;;;11.52;;
63276;SDS011;49403;51.046;13.780;2023-05-07T00:50:49;16.17;;;11.50;;
63276;SDS011;49403;51.046;13.780;2023-05-07T00:51:21;19.10;;;12.07;;
63276;SDS011;49403;51.046;13.780;2023-05-07T00:51:53;17.83;;;11.85;;
63276;SDS011;49403;51.046;13.780;2023-05-07T00:52:25;17.75;;;11.98;;
63276;SDS011;49403;51.046;13.780;2023-05-07T00:52:57;20.27;;;12.35;;
63276;SDS011;49403;51.046;13.780;2023-05-07T00:53:28;18.15;;;12.40;;
63276;SDS011;49403;51.046;13.780;2023-05-07T00:54:02;20.55;;;12.93;;
63276;SDS011;49403;51.046;13.780;2023-05-07T00:54:34;16.05;;;11.68;;
63276;SDS011;49403;51.046;13.780;2023-05-07T00:55:06;19.15;;;12.63;;
63276;SDS011;49403;51.046;13.780;2023-05-07T00:55:41;18.67;;;11.98;;
63276;SDS011;49403;51.046;13.780;2023-05-07T00:56:13;20.13;;;12.40;;
63276;SDS011;49403;51.046;13.780;2023-05-07T00:56:47;17.70;;;12.18;;
63276;SDS011;49403;51.046;13.780;2023-05-07T00:57:18;19.60;;;12.50;;
63276;SDS011;49403;51.046;13.780;2023-05-07T00:57:51;20.67;;;12.70;;
63276;SDS011;49403;51.046;13.780;2023-05-07T00:58:23;20.85;;;11.95;;
63276;SDS011;49403;51.046;13.780;2023-05-07T00:58:55;19.85;;;12.13;;
63276;SDS011;49403;51.046;13.780;2023-05-07T00:59:26;18.50;;;12.13;;
63276;SDS011;49403;51.046;13.780;2023-05-07T00:59:57;17.88;;;12.07;;
63276;SDS011;49403;51.046;13.780;2023-05-07T01:00:29;17.67;;;11.75;;
63276;SDS011;49403;51.046;13.780;2023-05-07T01:01:01;19.05;;;12.18;;
63276;SDS011;49403;51.046;13.780;2023-05-07T01:01:33;18.15;;;12.55;;
63276;SDS011;49403;51.046;13.780;2023-05-07T01:02:04;19.45;;;12.40;;
63276;SDS011;49403;51.046;13.780;2023-05-07T01:02:36;19.58;;;12.38;;
63276;SDS011;49403;51.046;13.780;2023-05-07T01:03:08;19.85;;;12.52;;
63276;SDS011;49403;51.046;13.780;2023-05-07T01:03:39;18.42;;;11.95;;
63276;SDS011;49403;51.046;13.780;2023-05-07T01:04:11;18.65;;;12.68;;
63276;SDS011;49403;51.046;13.780;2023-05-07T01:04:45;19.45;;;12.35;;
63276;SDS011;49403;51.046;13.780;2023-05-07T01:05:17;18.55;;;12.65;;
63276;SDS011;49403;51.046;13.780;2023-05-07T01:05:50;18.50;;;12.30;;
63276;SDS011;49403;51.046;13.780;2023-05-07T01:06:23;19.58;;;11.77;;
63276;SDS011;49403;51.046;13.780;2023-05-07T01:06:57;18.33;;;11.45;;
63276;SDS011;49403;51.046;13.780;2023-05-07T01:07:29;15.90;;;10.68;;
63276;SDS011;49403;51.046;13.780;2023-05-07T01:08:02;18.25;;;11.80;;
63276;SDS011;49403;51.046;13.780;2023-05-07T01:08:35;21.80;;;12.25;;
63276;SDS011;49403;51.046;13.780;2023-05-07T01:09:07;19.20;;;12.00;;
63276;SDS011;49403;51.046;13.780;2023-05-07T01:09:39;17.63;;;11.55;;
63276;SDS011;49403;51.046;13.780;2023-05-07T01:10:10;18.08;;;11.18;;
63276;SDS011;49403;51.046;13.780;2023-05-07T01:10:43;17.80;;;11.48;;
63276;SDS011;49403;51.046;13.780;2023-05-07T01:11:15;17.17;;;11.02;;
63276;SDS011;49403;51.046;13.780;2023-05-07T01:11:47;16.73;;;11.40;;
63276;SDS011;49403;51.046;13.780;2023-05-07T01:12:19;18.17;;;11.13;;
63276;SDS011;49403;51.046;13.780;2023-05-07T01:12:51;19.77;;;11.70;;
63276;SDS011;49403;51.046;13.780;2023-05-07T01:13:24;16.23;;;10.77;;
63276;SDS011;49403;51.046;13.780;2023-05-07T01:13:56;15.68;;;10.15;;
63276;SDS011;49403;51.046;13.780;2023-05-07T01:14:30;18.42;;;10.70;;
63276;SDS011;49403;51.046;13.780;2023-05-07T01:15:03;15.95;;;10.45;;
63276;SDS011;49403;51.046;13.780;2023-05-07T01:15:36;16.58;;;10.85;;
63276;SDS011;49403;51.046;13.780;2023-05-07T01:16:10;14.98;;;10.32;;
63276;SDS011;49403;51.046;13.780;2023-05-07T01:16:42;17.42;;;10.95;;
63276;SDS011;49403;51.046;13.780;2023-05-07T01:17:13;18.42;;;10.65;;
63276;SDS011;49403;51.046;13.780;2023-05-07T01:17:44;16.60;;;11.07;;
63276;SDS011;49403;51.046;13.780;2023-05-07T01:18:16;17.63;;;10.90;;
63276;SDS011;49403;51.046;13.780;2023-05-07T01:18:48;18.05;;;10.98;;
63276;SDS011;49403;51.046;13.780;2023-05-07T01:19:19;17.48;;;11.48;;
63276;SDS011;49403;51.046;13.780;2023-05-07T01:19:51;20.30;;;11.40;;
63276;SDS011;49403;51.046;13.780;2023-05-07T01:20:23;17.08;;;11.18;;
63276;SDS011;49403;51.046;13.780;2023-05-07T01:20:55;18.55;;;10.55;;
63276;SDS011;49403;51.046;13.780;2023-05-07T01:21:30;15.15;;;10.50;;
63276;SDS011;49403;51.046;13.780;2023-05-07T01:22:07;16.58;;;10.10;;
63276;SDS011;49403;51.046;13.780;2023-05-07T01:22:39;16.48;;;10.10;;
63276;SDS011;49403;51.046;13.780;2023-05-07T01:23:11;14.82;;;9.73;;
63276;SDS011;49403;51.046;13.780;2023-05-07T01:23:42;14.77;;;10.35;;
63276;SDS011;49403;51.046;13.780;2023-05-07T01:24:15;14.82;;;9.80;;
63276;SDS011;49403;51.046;13.780;2023-05-07T01:24:46;15.73;;;10.18;;
63276;SDS011;49403;51.046;13.780;2023-05-07T01:25:18;14.15;;;10.18;;
63276;SDS011;49403;51.046;13.780;2023-05-07T01:25:53;14.90;;;10.38;;
63276;SDS011;49403;51.046;13.780;2023-05-07T01:26:25;14.32;;;9.70;;
63276;SDS011;49403;51.046;13.780;2023-05-07T01:26:56;16.02;;;10.68;;
63276;SDS011;49403;51.046;13.780;2023-05-07T01:27:27;17.40;;;11.00;;
63276;SDS011;49403;51.046;13.780;2023-05-07T01:27:59;15.25;;;10.70;;
63276;SDS011;49403;51.046;13.780;2023-05-07T01:28:31;18.25;;;10.82;;
63276;SDS011;49403;51.046;13.780;2023-05-07T01:29:02;14.82;;;10.30;;
63276;SDS011;49403;51.046;13.780;2023-05-07T01:29:33;14.85;;;10.10;;
63276;SDS011;49403;51.046;13.780;2023-05-07T01:30:05;16.80;;;10.82;;
63276;SDS011;49403;51.046;13.780;2023-05-07T01:30:37;17.52;;;10.68;;
63276;SDS011;49403;51.046;13.780;2023-05-07T01:31:13;17.25;;;10.80;;
63276;SDS011;49403;51.046;13.780;2023-05-07T01:31:45;14.85;;;10.45;;
63276;SDS011;49403;51.046;13.780;2023-05-07T01:32:21;16.20;;;10.70;;
63276;SDS011;49403;51.046;13.780;2023-05-07T01:33:01;14.90;;;10.43;;
63276;SDS011;49403;51.046;13.780;2023-05-07T01:33:34;16.58;;;10.40;;
63276;SDS011;49403;51.046;13.780;2023-05-07T01:34:06;14.88;;;10.80;;
63276;SDS011;49403;51.046;13.780;2023-05-07T01:34:40;17.58;;;11.00;;
63276;SDS011;49403;51.046;13.780;2023-05-07T01:35:12;15.82;;;10.27;;
63276;SDS011;49403;51.046;13.780;2023-05-07T01:35:48;16.08;;;10.65;;
63276;SDS011;49403;51.046;13.780;2023-05-07T01:36:23;16.52;;;10.60;;
63276;SDS011;49403;51.046;13.780;2023-05-07T01:36:58;17.08;;;9.95;;
63276;SDS011;49403;51.046;13.780;2023-05-07T01:37:30;15.07;;;10.40;;
63276;SDS011;49403;51.046;13.780;2023-05-07T01:38:01;15.82;;;10.50;;
63276;SDS011;49403;51.046;13.780;2023-05-07T01:38:35;15.98;;;10.57;;
63276;SDS011;49403;51.046;13.780;2023-05-07T01:39:07;17.20;;;10.93;;
63276;SDS011;49403;51.046;13.780;2023-05-07T01:39:40;19.50;;;10.80;;
63276;SDS011;49403;51.046;13.780;2023-05-07T01:40:13;16.85;;;10.70;;
63276;SDS011;49403;51.046;13.780;2023-05-07T01:40:45;17.63;;;10.73;;
63276;SDS011;49403;51.046;13.780;2023-05-07T01:41:16;15.65;;;10.80;;
63276;SDS011;49403;51.046;13.780;2023-05-07T01:41:48;18.40;;;10.65;;
63276;SDS011;49403;51.046;13.780;2023-05-07T01:42:20;16.48;;;11.18;;
63276;SDS011;49403;51.046;13.780;2023-05-07T01:42:52;17.38;;;11.77;;
63276;SDS011;49403;51.046;13.780;2023-05-07T01:43:24;16.25;;;10.57;;
63276;SDS011;49403;51.046;13.780;2023-05-07T01:43:56;18.27;;;10.77;;
63276;SDS011;49403;51.046;13.780;2023-05-07T01:44:29;18.00;;;10.80;;
63276;SDS011;49403;51.046;13.780;2023-05-07T01:45:00;15.73;;;10.80;;
63276;SDS011;49403;51.046;13.780;2023-05-07T01:45:32;19.40;;;11.52;;
63276;SDS011;49403;51.046;13.780;2023-05-07T01:46:04;16.77;;;10.95;;
63276;SDS011;49403;51.046;13.780;2023-05-07T01:46:35;16.65;;;10.88;;
63276;SDS011;49403;51.046;13.780;2023-05-07T01:47:07;15.57;;;10.25;;
63276;SDS011;49403;51.046;13.780;2023-05-07T01:47:39;19.55;;;10.95;;
63276;SDS011;49403;51.046;13.780;2023-05-07T01:48:11;16.63;;;10.85;;
63276;SDS011;49403;51.046;13.780;2023-05-07T01:48:43;17.17;;;10.88;;
63276;SDS011;49403;51.046;13.780;2023-05-07T01:49:16;16.80;;;11.35;;
63276;SDS011;49403;51.046;13.780;2023-05-07T01:49:47;17.70;;;11.57;;
63276;SDS011;49403;51.046;13.780;2023-05-07T01:50:19;16.85;;;10.55;;
63276;SDS011;49403;51.046;13.780;2023-05-07T01:50:51;18.83;;;11.15;;
63276;SDS011;49403;51.046;13.780;2023-05-07T01:51:23;17.90;;;11.07;;
63276;SDS011;49403;51.046;13.780;2023-05-07T01:51:55;18.67;;;11.82;;
63276;SDS011;49403;51.046;13.780;2023-05-07T01:52:27;17.58;;;11.32;;
63276;SDS011;49403;51.046;13.780;2023-05-07T01:52:58;17.27;;;11.50;;
63276;SDS011;49403;51.046;13.780;2023-05-07T01:53:34;18.35;;;11.52;;
63276;SDS011;49403;51.046;13.780;2023-05-07T01:54:06;19.88;;;12.00;;
63276;SDS011;49403;51.046;13.780;2023-05-07T01:54:38;19.13;;;13.13;;
63276;SDS011;49403;51.046;13.780;2023-05-07T01:55:09;18.58;;;13.00;;
63276;SDS011;49403;51.046;13.780;2023-05-07T01:55:42;19.38;;;13.02;;
63276;SDS011;49403;51.046;13.780;2023-05-07T01:56:13;16.00;;;11.57;;
63276;SDS011;49403;51.046;13.780;2023-05-07T01:56:45;16.40;;;10.90;;
63276;SDS011;49403;51.046;13.780;2023-05-07T01:57:18;16.10;;;11.02;;
63276;SDS011;49403;51.046;13.780;2023-05-07T01:57:49;16.40;;;11.02;;
63276;SDS011;49403;51.046;13.780;2023-05-07T01:58:23;18.48;;;10.88;;
63276;SDS011;49403;51.046;13.780;2023-05-07T01:58:55;15.32;;;10.85;;
63276;SDS011;49403;51.046;13.780;2023-05-07T01:59:26;15.82;;;10.77;;
63276;SDS011;49403;51.046;13.780;2023-05-07T01:59:58;15.10;;;11.10;;
63276;SDS011;49403;51.046;13.780;2023-05-07T02:00:29;17.08;;;10.77;;
63276;SDS011;49403;51.046;13.780;2023-05-07T02:01:00;16.80;;;10.98;;
63276;SDS011;49403;51.046;13.780;2023-05-07T02:01:32;17.60;;;11.07;;
63276;SDS011;49403;51.046;13.780;2023-05-07T02:02:03;14.60;;;10.40;;
63276;SDS011;49403;51.046;13.780;2023-05-07T02:02:34;15.57;;;10.63;;
63276;SDS011;49403;51.046;13.780;2023-05-07T02:03:05;15.50;;;10.40;;
63276;SDS011;49403;51.046;13.780;2023-05-07T02:03:37;18.40;;;10.85;;
63276;SDS011;49403;51.046;13.780;2023-05-07T02:04:08;17.13;;;11.10;;
63276;SDS011;49403;51.046;13.780;2023-05-07T02:04:39;14.77;;;10.50;;
63276;SDS011;49403;51.046;13.780;2023-05-07T02:05:10;17.02;;;11.35;;
63276;SDS011;49403;51.046;13.780;2023-05-07T02:05:42;14.30;;;10.13;;
63276;SDS011;49403;51.046;13.780;2023-05-07T02:06:13;17.63;;;11.02;;
63276;SDS011;49403;51.046;13.780;2023-05-07T02:06:44;16.48;;;10.93;;
63276;SDS011;49403;51.046;13.780;2023-05-07T02:07:16;15.85;;;10.98;;
63276;SDS011;49403;51.046;13.780;2023-05-07T02:07:47;15.15;;;11.00;;
63276;SDS011;49403;51.046;13.780;2023-05-07T02:08:18;15.60;;;10.90;;
63276;SDS011;49403;51.046;13.780;2023-05-07T02:08:50;16.27;;;11.57;;
63276;SDS011;49403;51.046;13.780;2023-05-07T02:09:21;18.85;;;12.02;;
63276;SDS011;49403;51.046;13.780;2023-05-07T02:09:53;16.58;;;10.90;;
63276;SDS011;49403;51.046;13.780;2023-05-07T02:10:25;17.80;;;11.40;;
63276;SDS011;49403;51.046;13.780;2023-05-07T02:10:59;18.77;;;10.80;;
63276;SDS011;49403;51.046;13.780;2023-05-07T02:11:30;15.18;;;11.02;;
63276;SDS011;49403;51.046;13.780;2023-05-07T02:12:04;18.83;;;11.88;;
63276;SDS011;49403;51.046;13.780;2023-05-07T02:12:35;18.00;;;11.45;;
63276;SDS011;49403;51.046;13.780;2023-05-07T02:13:07;17.05;;;11.13;;
63276;SDS011;49403;51.046;13.780;2023-05-07T02:13:38;15.02;;;10.65;;
63276;SDS011;49403;51.046;13.780;2023-05-07T02:14:09;17.83;;;11.63;;
63276;SDS011;49403;51.046;13.780;2023-05-07T02:14:41;16.40;;;11.07;;
63276;SDS011;49403;51.046;13.780;2023-05-07T02:15:12;14.68;;;10.63;;
63276;SDS011;49403;51.046;13.780;2023-05-07T02:15:43;15.15;;;10.82;;
63276;SDS011;49403;51.046;13.780;2023-05-07T02:16:19;15.15;;;10.68;;
63276;SDS011;49403;51.046;13.780;2023-05-07T02:16:53;17.33;;;11.02;;
63276;SDS011;49403;51.046;13.780;2023-05-07T02:17:25;15.88;;;11.55;;
63276;SDS011;49403;51.046;13.780;2023-05-07T02:18:03;17.23;;;10.98;;
63276;SDS011;49403;51.046;13.780;2023-05-07T02:18:39;14.68;;;10.07;;
63276;SDS011;49403;51.046;13.780;2023-05-07T02:19:13;16.30;;;10.63;;
63276;SDS011;49403;51.046;13.780;2023-05-07T02:19:51;15.48;;;10.60;;
63276;SDS011;49403;51.046;13.780;2023-05-07T02:20:22;15.70;;;10.70;;
63276;SDS011;49403;51.046;13.780;2023-05-07T02:20:54;15.85;;;11.35;;
63276;SDS011;49403;51.046;13.780;2023-05-07T02:21:25;15.93;;;11.00;;
63276;SDS011;49403;51.046;13.780;2023-05-07T02:21:56;15.38;;;10.70;;
63276;SDS011;49403;51.046;13.780;2023-05-07T02:22:28;15.32;;;10.13;;
63276;SDS011;49403;51.046;13.780;2023-05-07T02:22:59;18.67;;;10.57;;
63276;SDS011;49403;51.046;13.780;2023-05-07T02:23:30;15.52;;;10.40;;
63276;SDS011;49403;51.046;13.780;2023-05-07T02:24:02;16.25;;;11.10;;
63276;SDS011;49403;51.046;13.780;2023-05-07T02:24:34;16.25;;;11.20;;
63276;SDS011;49403;51.046;13.780;2023-05-07T02:25:05;17.70;;;11.70;;
63276;SDS011;49403;51.046;13.780;2023-05-07T02:25:37;15.00;;;10.52;;
63276;SDS011;49403;51.046;13.780;2023-05-07T02:26:08;16.33;;;11.32;;
63276;SDS011;49403;51.046;13.780;2023-05-07T02:26:40;15.80;;;11.60;;
63276;SDS011;49403;51.046;13.780;2023-05-07T02:27:11;18.38;;;11.55;;
63276;SDS011;49403;51.046;13.780;2023-05-07T02:27:43;15.93;;;11.07;;
63276;SDS011;49403;51.046;13.780;2023-05-07T02:28:14;16.90;;;10.90;;
63276;SDS011;49403;51.046;13.780;2023-05-07T02:28:48;16.27;;;10.63;;
63276;SDS011;49403;51.046;13.780;2023-05-07T02:29:22;16.33;;;10.73;;
63276;SDS011;49403;51.046;13.780;2023-05-07T02:29:54;17.63;;;10.63;;
63276;SDS011;49403;51.046;13.780;2023-05-07T02:30:25;16.80;;;10.95;;
63276;SDS011;49403;51.046;13.780;2023-05-07T02:30:56;17.42;;;11.52;;
63276;SDS011;49403;51.046;13.780;2023-05-07T02:31:29;16.48;;;10.40;;
63276;SDS011;49403;51.046;13.780;2023-05-07T02:32:01;18.13;;;11.85;;
63276;SDS011;49403;51.046;13.780;2023-05-07T02:32:32;16.23;;;11.18;;
63276;SDS011;49403;51.046;13.780;2023-05-07T02:33:03;16.92;;;11.35;;
63276;SDS011;49403;51.046;13.780;2023-05-07T02:33:37;16.00;;;11.32;;
63276;SDS011;49403;51.046;13.780;2023-05-07T02:34:08;15.77;;;10.63;;
63276;SDS011;49403;51.046;13.780;2023-05-07T02:34:40;14.75;;;10.60;;
63276;SDS011;49403;51.046;13.780;2023-05-07T02:35:11;14.10;;;10.52;;
63276;SDS011;49403;51.046;13.780;2023-05-07T02:35:42;13.52;;;9.93;;
63276;SDS011;49403;51.046;13.780;2023-05-07T02:36:14;15.13;;;10.55;;
63276;SDS011;49403;51.046;13.780;2023-05-07T02:36:45;15.55;;;10.27;;
63276;SDS011;49403;51.046;13.780;2023-05-07T02:37:16;15.60;;;10.38;;
63276;SDS011;49403;51.046;13.780;2023-05-07T02:37:48;15.75;;;10.07;;
63276;SDS011;49403;51.046;13.780;2023-05-07T02:38:19;16.02;;;10.05;;
63276;SDS011;49403;51.046;13.780;2023-05-07T02:38:50;16.70;;;10.18;;
63276;SDS011;49403;51.046;13.780;2023-05-07T02:39:21;13.23;;;9.73;;
63276;SDS011;49403;51.046;13.780;2023-05-07T02:39:52;14.73;;;10.27;;
63276;SDS011;49403;51.046;13.780;2023-05-07T02:40:23;14.07;;;10.02;;
63276;SDS011;49403;51.046;13.780;2023-05-07T02:40:55;12.65;;;9.20;;
63276;SDS011;49403;51.046;13.780;2023-05-07T02:41:26;15.05;;;9.85;;
63276;SDS011;49403;51.046;13.780;2023-05-07T02:41:58;13.60;;;9.50;;
63276;SDS011;49403;51.046;13.780;2023-05-07T02:42:29;14.30;;;9.55;;
63276;SDS011;49403;51.046;13.780;2023-05-07T02:43:00;15.20;;;9.82;;
63276;SDS011;49403;51.046;13.780;2023-05-07T02:43:31;16.15;;;10.23;;
63276;SDS011;49403;51.046;13.780;2023-05-07T02:44:03;13.95;;;9.45;;
63276;SDS011;49403;51.046;13.780;2023-05-07T02:44:34;13.02;;;9.70;;
63276;SDS011;49403;51.046;13.780;2023-05-07T02:45:06;14.88;;;9.68;;
63276;SDS011;49403;51.046;13.780;2023-05-07T02:45:37;15.52;;;9.27;;
63276;SDS011;49403;51.046;13.780;2023-05-07T02:46:08;14.55;;;9.13;;
63276;SDS011;49403;51.046;13.780;2023-05-07T02:46:40;11.95;;;8.85;;
63276;SDS011;49403;51.046;13.780;2023-05-07T02:47:12;13.23;;;9.25;;
63276;SDS011;49403;51.046;13.780;2023-05-07T02:47:45;13.82;;;8.93;;
63276;SDS011;49403;51.046;13.780;2023-05-07T02:48:17;11.10;;;8.50;;
63276;SDS011;49403;51.046;13.780;2023-05-07T02:48:48;14.05;;;9.18;;
63276;SDS011;49403;51.046;13.780;2023-05-07T02:49:19;12.27;;;8.82;;
63276;SDS011;49403;51.046;13.780;2023-05-07T02:49:51;13.05;;;8.85;;
63276;SDS011;49403;51.046;13.780;2023-05-07T02:50:22;12.40;;;8.57;;
63276;SDS011;49403;51.046;13.780;2023-05-07T02:50:57;12.98;;;8.43;;
63276;SDS011;49403;51.046;13.780;2023-05-07T02:51:29;12.88;;;8.80;;
63276;SDS011;49403;51.046;13.780;2023-05-07T02:52:01;14.07;;;8.38;;
63276;SDS011;49403;51.046;13.780;2023-05-07T02:52:32;13.40;;;8.40;;
63276;SDS011;49403;51.046;13.780;2023-05-07T02:53:04;11.70;;;8.05;;
63276;SDS011;49403;51.046;13.780;2023-05-07T02:53:35;11.77;;;7.97;;
63276;SDS011;49403;51.046;13.780;2023-05-07T02:54:06;11.90;;;8.00;;
63276;SDS011;49403;51.046;13.780;2023-05-07T02:54:37;11.85;;;8.07;;
63276;SDS011;49403;51.046;13.780;2023-05-07T02:55:09;12.05;;;8.63;;
63276;SDS011;49403;51.046;13.780;2023-05-07T02:55:40;10.75;;;8.05;;
63276;SDS011;49403;51.046;13.780;2023-05-07T02:56:12;11.77;;;7.82;;
63276;SDS011;49403;51.046;13.780;2023-05-07T02:56:43;12.10;;;7.90;;
63276;SDS011;49403;51.046;13.780;2023-05-07T02:57:14;13.63;;;8.07;;
63276;SDS011;49403;51.046;13.780;2023-05-07T02:57:46;13.23;;;8.15;;
63276;SDS011;49403;51.046;13.780;2023-05-07T02:58:17;13.25;;;7.75;;
63276;SDS011;49403;51.046;13.780;2023-05-07T02:58:48;10.57;;;7.78;;
63276;SDS011;49403;51.046;13.780;2023-05-07T02:59:20;12.05;;;7.70;;
63276;SDS011;49403;51.046;13.780;2023-05-07T02:59:51;11.20;;;7.80;;
63276;SDS011;49403;51.046;13.780;2023-05-07T03:00:22;12.73;;;8.48;;
63276;SDS011;49403;51.046;13.780;2023-05-07T03:00:54;11.13;;;8.13;;
63276;SDS011;49403;51.046;13.780;2023-05-07T03:01:25;13.43;;;7.72;;
63276;SDS011;49403;51.046;13.780;2023-05-07T03:01:56;11.30;;;8.00;;
63276;SDS011;49403;51.046;13.780;2023-05-07T03:02:27;12.48;;;7.82;;
63276;SDS011;49403;51.046;13.780;2023-05-07T03:02:58;12.52;;;8.05;;
63276;SDS011;49403;51.046;13.780;2023-05-07T03:03:30;11.32;;;8.10;;
63276;SDS011;49403;51.046;13.780;2023-05-07T03:04:01;12.35;;;8.20;;
63276;SDS011;49403;51.046;13.780;2023-05-07T03:04:32;12.95;;;7.78;;